Data for 12/09/2014

Time Sea-Level Adjusted Pressure Absolute Pressure Temperature Relative Humidity Dew Point   
(mb) (inHg) (mb) (inHg) (C) (F) (%) (C) (F)
00:05 1023 30.21 852 25.16 3 37.5 57 -4.6 23.7
00:10 1023 30.21 852 25.16 3.3 37.9 55 -4.8 23.3
00:15 1023 30.21 852 25.16 3.7 38.7 53 -4.9 23.1
00:20 1023 30.21 852 25.16 4.2 39.5 52 -4.9 23.3
00:25 1023 30.21 852 25.16 4.5 40 50 -4.9 23.1
00:30 1023 30.21 852 25.16 4.7 40.4 50 -4.9 23.3
00:35 1023 30.21 852 25.16 4.7 40.5 50 -4.7 23.5
00:40 1023 30.21 852 25.16 4.7 40.5 49 -5 23
00:45 1023 30.21 852 25.16 4.8 40.7 50 -4.7 23.6
00:50 1023 30.21 852 25.16 4.5 40.1 52 -4.4 24
00:55 1023 30.21 852 25.16 3.6 38.5 57 -4.2 24.4
01:00 1023 30.21 852 25.16 2.6 36.7 59 -4.5 23.9
01:05 1022 30.18 852 25.16 2.2 36 60 -4.8 23.4
01:10 1022 30.18 852 25.16 2.3 36.1 60 -4.6 23.7
01:15 1022 30.18 852 25.16 2.3 36.2 60 -4.7 23.6
01:20 1022 30.18 852 25.16 2 35.6 61 -4.8 23.4
01:25 1022 30.18 852 25.16 2.4 36.3 59 -4.9 23.2
01:30 1022 30.18 852 25.16 2.7 36.8 59 -4.6 23.7
01:35 1022 30.18 852 25.16 2.5 36.5 59 -4.8 23.4
01:40 1022 30.18 852 25.16 2.7 36.9 59 -4.6 23.8
01:45 1023 30.21 852 25.16 2.8 37 58 -4.6 23.7
01:50 1023 30.21 852 25.16 2.8 37.1 58 -4.6 23.7
01:55 1022 30.18 852 25.16 2.9 37.2 58 -4.5 24
02:00 1023 30.21 852 25.16 2.7 36.9 58 -4.6 23.7
02:05 1023 30.21 852 25.16 3.1 37.6 57 -4.6 23.8
02:10 1023 30.21 852 25.16 3.1 37.6 57 -4.5 23.9
02:15 1023 30.21 852 25.16 2.6 36.6 59 -4.6 23.7
02:20 1023 30.21 852 25.16 2.6 36.7 59 -4.6 23.7
02:25 1023 30.21 852 25.16 2.2 35.9 61 -4.6 23.7
02:30 1023 30.21 852 25.16 2 35.7 61 -4.6 23.7
02:35 1023 30.21 852 25.16 1.9 35.3 62 -4.7 23.6
02:40 1023 30.21 852 25.16 1.7 35.1 63 -4.5 23.9
02:45 1023 30.21 852 25.16 1.7 35 62 -4.8 23.4
02:50 1023 30.21 852 25.16 1.7 35 64 -4.3 24.2
02:55 1023 30.21 852 25.16 1.5 34.7 64 -4.7 23.5
03:00 1023 30.21 852 25.16 1.8 35.2 61 -4.9 23.2
03:05 1023 30.21 852 25.16 1.7 35.1 62 -4.7 23.6
03:10 1023 30.21 852 25.16 1.7 35 62 -4.9 23.2
03:15 1023 30.21 852 25.16 1.7 35 64 -4.4 24.2
03:20 1023 30.21 852 25.16 1.2 34.1 65 -4.7 23.6
03:25 1023 30.21 852 25.16 0.8 33.4 66 -4.8 23.3
03:30 1023 30.21 852 25.16 0.4 32.7 68 -4.9 23.2
03:35 1023 30.21 852 25.16 1.4 34.4 63 -4.8 23.3
03:40 1023 30.21 852 25.16 1.8 35.3 61 -4.9 23.2
03:45 1023 30.21 852 25.16 2.3 36.1 60 -4.7 23.5
03:50 1023 30.21 852 25.16 2.3 36.1 60 -4.7 23.6
03:55 1023 30.21 852 25.16 2.4 36.3 60 -4.7 23.6
04:00 1023 30.21 852 25.16 1.7 35 62 -4.8 23.4
04:05 1023 30.21 852 25.16 1.5 34.6 63 -4.8 23.3
04:10 1023 30.21 852 25.16 1.3 34.3 65 -4.6 23.8
04:15 1023 30.21 852 25.16 0.9 33.6 65 -5 23
04:20 1023 30.21 852 25.16 1.3 34.3 64 -4.7 23.5
04:25 1023 30.21 852 25.16 0.9 33.7 66 -4.8 23.4
04:30 1022 30.18 852 25.16 0.8 33.5 66 -4.8 23.4
04:35 1022 30.18 852 25.16 1.1 34 64 -4.9 23.1
04:40 1022 30.18 852 25.16 1.4 34.5 63 -4.9 23.2
04:45 1022 30.18 851 25.13 1.4 34.5 63 -4.8 23.3
04:50 1022 30.18 851 25.13 1.6 34.8 63 -4.8 23.3
04:55 1022 30.18 851 25.13 1.7 35 62 -4.9 23.3
05:00 1022 30.18 851 25.13 1.7 35.1 63 -4.6 23.6
05:05 1022 30.18 851 25.13 1.5 34.6 63 -4.8 23.3
05:10 1022 30.18 851 25.13 1.8 35.2 61 -4.9 23.1
05:15 1022 30.18 851 25.13 2.1 35.7 61 -4.7 23.6
05:20 1022 30.18 851 25.13 2.1 35.9 60 -4.8 23.4
05:25 1022 30.18 851 25.13 2.5 36.6 59 -4.6 23.7
05:30 1022 30.18 851 25.13 2.6 36.6 58 -4.9 23.2
05:35 1022 30.18 851 25.13 2.3 36.1 59 -5 22.9
05:40 1022 30.18 851 25.13 1.8 35.2 62 -4.8 23.3
05:45 1022 30.18 851 25.13 1.2 34.2 62 -5.2 22.6
05:50 1022 30.18 851 25.13 1.8 35.2 60 -5.1 22.8
05:55 1022 30.18 851 25.13 2.4 36.3 58 -5 23.1
06:00 1022 30.18 851 25.13 2.4 36.4 59 -4.7 23.5
06:05 1022 30.18 851 25.13 1.8 35.3 61 -4.8 23.4
06:10 1022 30.18 851 25.13 2 35.5 61 -4.8 23.4
06:15 1022 30.18 851 25.13 1.6 34.8 63 -4.8 23.3
06:20 1022 30.18 851 25.13 1.5 34.8 62 -4.9 23.2
06:25 1022 30.18 851 25.13 1.7 35 61 -5 22.9
06:30 1022 30.18 851 25.13 2.4 36.3 58 -5 23
06:35 1022 30.18 851 25.13 2.4 36.4 59 -4.8 23.4
06:40 1022 30.18 851 25.13 2.1 35.9 61 -4.6 23.7
06:45 1022 30.18 851 25.13 1.7 35 61 -5 22.9
06:50 1022 30.18 851 25.13 2.1 35.8 60 -4.9 23.1
06:55 1022 30.18 851 25.13 2.1 35.8 60 -4.9 23.2
07:00 1022 30.18 851 25.13 2.1 35.7 60 -4.8 23.3
07:05 1022 30.18 851 25.13 2 35.7 60 -4.9 23.1
07:10 1022 30.18 851 25.13 2.3 36.2 59 -4.9 23.2
07:15 1022 30.18 851 25.13 2.4 36.4 58 -5 23.1
07:20 1022 30.18 851 25.13 2.8 37 56 -5.2 22.7
07:25 1022 30.18 851 25.13 2.7 36.9 57 -4.9 23.3
07:30 1022 30.18 851 25.13 2.2 35.9 59 -5.1 22.9
07:35 1022 30.18 851 25.13 1.2 34.2 62 -5.3 22.4
07:40 1022 30.18 851 25.13 1.5 34.8 59 -5.6 22
07:45 1022 30.18 851 25.13 1.5 34.7 59 -5.6 21.9
07:50 1022 30.18 851 25.13 1.8 35.2 58 -5.6 21.9
07:55 1022 30.18 851 25.13 2 35.6 57 -5.7 21.8
08:00 1022 30.18 851 25.13 2.3 36.1 57 -5.5 22.1
08:05 1022 30.18 851 25.13 2.6 36.6 55 -5.6 21.9
08:10 1022 30.18 851 25.13 2.6 36.7 55 -5.5 22.1
08:15 1022 30.18 851 25.13 2.8 37 54 -5.6 22
08:20 1022 30.18 851 25.13 1.9 35.4 61 -4.8 23.3
08:25 1021 30.15 851 25.13 1.5 34.8 61 -5.1 22.7
08:30 1021 30.15 851 25.13 1.6 34.8 60 -5.4 22.3
08:35 1021 30.15 851 25.13 1.3 34.3 61 -5.4 22.2
08:40 1021 30.15 851 25.13 1.2 34.1 61 -5.4 22.2
08:45 1021 30.15 851 25.13 1.4 34.5 61 -5.3 22.5
08:50 1021 30.15 851 25.13 1.2 34.2 63 -5.1 22.8
08:55 1021 30.15 851 25.13 1.2 34.1 62 -5.4 22.3
09:00 1021 30.15 851 25.13 1.6 34.8 60 -5.4 22.2
09:05 1022 30.18 851 25.13 1.9 35.4 60 -5.2 22.7
09:10 1022 30.18 851 25.13 1.9 35.4 59 -5.4 22.4
09:15 1022 30.18 851 25.13 1.9 35.4 59 -5.3 22.4
09:20 1022 30.18 851 25.13 2.1 35.8 57 -5.4 22.3
09:25 1022 30.18 851 25.13 2.3 36.2 57 -5.4 22.2
09:30 1022 30.18 851 25.13 2.6 36.7 56 -5.3 22.5
09:35 1022 30.18 851 25.13 3 37.4 53 -5.7 21.8
09:40 1022 30.18 851 25.13 3.6 38.5 53 -5.1 22.9
09:45 1022 30.18 851 25.13 3.5 38.4 53 -5.2 22.6
09:50 1022 30.18 851 25.13 3.6 38.5 53 -5.2 22.6
09:55 1022 30.18 851 25.13 3.8 38.9 52 -5.1 22.8
10:00 1022 30.18 851 25.13 3.7 38.7 52 -5.2 22.7
10:05 1022 30.18 851 25.13 3.9 39 52 -5.2 22.7
10:10 1022 30.18 852 25.16 4.3 39.7 51 -5 23
10:15 1022 30.18 852 25.16 4 39.2 53 -4.6 23.7
10:20 1022 30.18 852 25.16 4 39.2 52 -4.8 23.3
10:25 1022 30.18 852 25.16 3.5 38.4 54 -4.8 23.3
10:30 1022 30.18 852 25.16 3.5 38.2 54 -4.9 23.1
10:35 1022 30.18 852 25.16 3 37.5 56 -5 23.1
10:40 1022 30.18 851 25.13 3.4 38.1 55 -4.9 23.3
10:45 1022 30.18 851 25.13 3.7 38.6 54 -4.8 23.4
10:50 1022 30.18 851 25.13 4.1 39.4 54 -4.4 24.1
10:55 1022 30.18 851 25.13 4.3 39.7 54 -4.1 24.6
11:00 1022 30.18 851 25.13 4.4 40 54 -4.1 24.7
11:05 1022 30.18 851 25.13 4.8 40.6 52 -4.2 24.4
11:10 1022 30.18 851 25.13 5.4 41.7 51 -3.9 24.9
11:15 1022 30.18 852 25.16 5.4 41.7 52 -3.8 25.2
11:20 1022 30.18 852 25.16 5 40.9 53 -3.9 24.9
11:25 1022 30.18 852 25.16 5.9 42.6 49 -4 24.8
11:30 1022 30.18 852 25.16 5.9 42.5 50 -3.9 25.1
11:35 1022 30.18 852 25.16 5.7 42.3 50 -3.8 25.2
11:40 1022 30.18 852 25.16 6.6 43.8 46 -4.1 24.6
11:45 1022 30.18 852 25.16 7 44.6 48 -3.3 26.1
11:50 1022 30.18 852 25.16 6.4 43.5 50 -3.4 25.9
11:55 1022 30.18 852 25.16 6.4 43.5 49 -3.6 25.5
12:00 1022 30.18 851 25.13 6.4 43.5 49 -3.5 25.7
12:05 1022 30.18 851 25.13 6.4 43.4 48 -3.7 25.3
12:10 1022 30.18 851 25.13 5.9 42.6 51 -3.4 25.9
12:15 1022 30.18 851 25.13 6.2 43.2 50 -3.5 25.6
12:20 1022 30.18 851 25.13 5.9 42.6 51 -3.5 25.7
12:25 1022 30.18 851 25.13 5.9 42.7 50 -3.6 25.5
12:30 1022 30.18 851 25.13 6.8 44.2 48 -3.6 25.5
12:35 1022 30.18 851 25.13 7.3 45.1 46 -3.4 25.8
12:40 1022 30.18 851 25.13 7.2 44.9 47 -3.4 25.9
12:45 1022 30.18 851 25.13 7.1 44.7 47 -3.5 25.8
12:50 1022 30.18 851 25.13 7.3 45.1 46 -3.5 25.7
12:55 1021 30.15 851 25.13 6.7 44.1 49 -3.4 26
13:00 1021 30.15 851 25.13 6.8 44.3 48 -3.5 25.7
13:05 1021 30.15 850 25.1 6.9 44.4 47 -3.7 25.4
13:10 1021 30.15 850 25.1 6.8 44.3 48 -3.4 25.9
13:15 1021 30.15 850 25.1 7 44.6 48 -3.3 26.1
13:20 1021 30.15 850 25.1 7.5 45.4 46 -3.4 25.8
13:25 1021 30.15 850 25.1 8 46.3 42 -4.2 24.5
13:30 1021 30.15 850 25.1 8.6 47.5 41 -3.9 25
13:35 1021 30.15 850 25.1 8 46.5 43 -3.8 25.1
13:40 1021 30.15 850 25.1 8.3 46.9 42 -4 24.8
13:45 1021 30.15 850 25.1 9.1 48.4 38 -4.4 24.2
13:50 1021 30.15 850 25.1 9.2 48.6 39 -3.9 25
13:55 1021 30.15 850 25.1 8.7 47.7 39 -4.3 24.2
14:00 1021 30.15 850 25.1 9.6 49.3 37 -4.3 24.2
14:05 1021 30.15 850 25.1 9.4 48.9 38 -4.4 24.2
14:10 1021 30.15 850 25.1 9.8 49.7 36 -4.4 24.2
14:15 1021 30.15 850 25.1 9.9 49.8 38 -3.8 25.1
14:20 1020 30.12 850 25.1 10 50 35 -4.6 23.7
14:25 1020 30.12 850 25.1 10.8 51.4 33 -4.7 23.6
14:30 1020 30.12 849 25.07 11.6 52.8 33 -4.3 24.3
14:35 1020 30.12 849 25.07 11.3 52.4 33 -4.3 24.3
14:40 1020 30.12 849 25.07 11.3 52.4 33 -4.4 24.1
14:45 1020 30.12 849 25.07 11.6 52.8 32 -4.3 24.2
14:50 1020 30.12 849 25.07 11.6 52.8 32 -4.4 24.1
14:55 1020 30.12 849 25.07 11.4 52.6 33 -4.2 24.5
15:00 1019 30.09 849 25.07 11.2 52.2 33 -4.4 24
15:05 1019 30.09 849 25.07 11.8 53.3 32 -4.1 24.6
15:10 1019 30.09 849 25.07 11.6 52.9 33 -4.2 24.4
15:15 1019 30.09 849 25.07 12.5 54.4 31 -4 24.7
15:20 1019 30.09 848 25.04 12.4 54.3 32 -3.9 24.9
15:25 1019 30.09 848 25.04 12 53.5 33 -3.6 25.5
15:30 1019 30.09 848 25.04 11.4 52.6 35 -3.3 26.1
15:35 1019 30.09 848 25.04 11 51.8 36 -3.5 25.7
15:40 1019 30.09 848 25.04 11.1 52.1 34 -4 24.9
15:45 1019 30.09 848 25.04 11.3 52.3 34 -4 24.8
15:50 1019 30.09 848 25.04 12 53.6 31 -4.4 24.1
15:55 1019 30.09 848 25.04 12.8 55 31 -3.8 25.1
16:00 1019 30.09 848 25.04 12.7 54.8 31 -4.1 24.7
16:05 1019 30.09 848 25.04 12.8 55.1 30 -4.3 24.2
16:10 1019 30.09 848 25.04 13.3 55.9 29 -4.3 24.3
16:15 1019 30.09 848 25.04 13 55.3 30 -4.1 24.7
16:20 1019 30.09 848 25.04 12.5 54.6 31 -3.9 25
16:25 1019 30.09 848 25.04 12.3 54.1 32 -4 24.8
16:30 1019 30.09 848 25.04 12.1 53.8 33 -3.8 25.2
16:35 1019 30.09 848 25.04 12 53.7 33 -3.5 25.6
16:40 1019 30.09 848 25.04 11.9 53.4 34 -3.6 25.6
16:45 1019 30.09 848 25.04 11.7 53 34 -3.7 25.4
16:50 1019 30.09 848 25.04 11.5 52.7 34 -3.7 25.4
16:55 1019 30.09 848 25.04 11.3 52.3 36 -3.1 26.5
17:00 1019 30.09 848 25.04 11.2 52.2 39 -2.3 27.8
17:05 1019 30.09 848 25.04 10.9 51.6 40 -2.2 28
17:10 1019 30.09 848 25.04 10.4 50.7 43 -1.6 29.2
17:15 1019 30.09 848 25.04 9.8 49.6 46 -1.2 29.8
17:20 1019 30.09 849 25.07 9.3 48.8 47 -1.3 29.7
17:25 1019 30.09 849 25.07 8.9 47.9 49 -1.2 29.8
17:30 1020 30.12 849 25.07 8.3 47 51 -1.2 29.8
17:35 1020 30.12 849 25.07 7.7 45.9 53 -1.3 29.7
17:40 1020 30.12 849 25.07 7.2 44.9 55 -1.3 29.6
17:45 1020 30.12 849 25.07 6.9 44.4 55 -1.5 29.4
17:50 1020 30.12 849 25.07 6.7 44.1 56 -1.5 29.3
17:55 1020 30.12 849 25.07 6.5 43.7 56 -1.5 29.3
18:00 1020 30.12 849 25.07 6.3 43.4 58 -1.2 29.8
18:05 1020 30.12 849 25.07 6 42.7 59 -1.4 29.4
18:10 1020 30.12 849 25.07 5.8 42.5 60 -1.4 29.5
18:15 1020 30.12 849 25.07 5.8 42.4 60 -1.4 29.4
18:20 1020 30.12 849 25.07 5.7 42.2 58 -1.9 28.5
18:25 1020 30.12 849 25.07 6 42.8 57 -1.8 28.8
18:30 1020 30.12 849 25.07 5.9 42.7 57 -1.9 28.6
18:35 1020 30.12 849 25.07 6 42.9 58 -1.7 29
18:40 1020 30.12 849 25.07 5.9 42.6 57 -2 28.4
18:45 1020 30.12 849 25.07 5.9 42.6 55 -2.5 27.5
18:50 1020 30.12 849 25.07 6.1 42.9 54 -2.6 27.4
18:55 1020 30.12 849 25.07 6 42.9 55 -2.4 27.6
19:00 1020 30.12 849 25.07 6.1 42.9 53 -2.8 26.9
19:05 1020 30.12 849 25.07 6.1 43 53 -2.7 27.2
19:10 1020 30.12 849 25.07 5.7 42.3 55 -2.7 27.2
19:15 1020 30.12 849 25.07 5.6 42 55 -2.8 26.9
19:20 1020 30.12 849 25.07 6 42.8 53 -2.9 26.8
19:25 1020 30.12 849 25.07 6 42.8 55 -2.3 27.9
19:30 1020 30.12 849 25.07 5.5 41.9 56 -2.6 27.4
19:35 1020 30.12 849 25.07 5.6 42.2 52 -3.4 25.8
19:40 1020 30.12 849 25.07 6.2 43.1 52 -3 26.6
19:45 1020 30.12 849 25.07 6.1 42.9 52 -3 26.7
19:50 1020 30.12 849 25.07 5.8 42.5 55 -2.5 27.5
19:55 1020 30.12 849 25.07 5.4 41.7 57 -2.4 27.7
20:00 1020 30.12 849 25.07 4.9 40.9 57 -2.9 26.8
20:05 1020 30.12 849 25.07 5 41 57 -2.9 26.8
20:10 1020 30.12 849 25.07 4.7 40.5 60 -2.3 27.9
20:15 1020 30.12 849 25.07 4.8 40.6 55 -3.4 25.8
20:20 1020 30.12 849 25.07 5.7 42.3 53 -3 26.6
20:25 1020 30.12 849 25.07 5.6 42 55 -2.7 27.2
20:30 1020 30.12 849 25.07 5.6 42 54 -3.1 26.4
20:35 1020 30.12 849 25.07 5.8 42.4 54 -2.9 26.8
20:40 1020 30.12 849 25.07 5.5 41.9 54 -3.1 26.4
20:45 1020 30.12 849 25.07 5.7 42.2 54 -3 26.7
20:50 1020 30.12 849 25.07 5.8 42.4 53 -3.2 26.3
20:55 1020 30.12 849 25.07 5.8 42.4 52 -3.4 26
21:00 1020 30.12 849 25.07 5.9 42.6 52 -3.2 26.3
21:05 1020 30.12 849 25.07 6.2 43.1 51 -3.2 26.3
21:10 1020 30.12 849 25.07 6.1 43 52 -3 26.5
21:15 1020 30.12 849 25.07 5.9 42.6 53 -3 26.6
21:20 1020 30.12 849 25.07 5.7 42.2 54 -2.9 26.8
21:25 1020 30.12 849 25.07 5.7 42.2 54 -2.9 26.7
21:30 1020 30.12 849 25.07 5.7 42.2 54 -2.8 27
21:35 1020 30.12 849 25.07 5.5 41.9 56 -2.6 27.4
21:40 1020 30.12 849 25.07 5.2 41.3 55 -3.1 26.5
21:45 1020 30.12 849 25.07 5.5 41.8 55 -2.8 27
21:50 1020 30.12 849 25.07 5.4 41.7 55 -2.8 27
21:55 1020 30.12 849 25.07 5.3 41.5 55 -3 26.5
22:00 1020 30.12 849 25.07 5.7 42.2 51 -3.6 25.5
22:05 1019 30.09 849 25.07 6.1 43 54 -2.6 27.3
22:10 1019 30.09 849 25.07 5.3 41.5 58 -2.3 27.9
22:15 1019 30.09 849 25.07 4.7 40.4 59 -2.5 27.4
22:20 1019 30.09 849 25.07 4.7 40.4 59 -2.6 27.3
22:25 1019 30.09 849 25.07 5 40.9 57 -2.8 26.9
22:30 1019 30.09 849 25.07 5.1 41.3 57 -2.6 27.2
22:35 1019 30.09 848 25.04 5.2 41.4 56 -2.8 27
22:40 1019 30.09 848 25.04 5.3 41.6 56 -2.8 27
22:45 1019 30.09 848 25.04 5.4 41.8 55 -2.8 27
22:50 1019 30.09 848 25.04 5.4 41.8 56 -2.7 27.1
22:55 1019 30.09 848 25.04 5.4 41.7 56 -2.8 27
23:00 1019 30.09 849 25.07 5.3 41.6 56 -2.8 27
23:05 1019 30.09 849 25.07 5.5 41.8 54 -3 26.6
23:10 1019 30.09 849 25.07 5.7 42.3 54 -2.9 26.8
23:15 1020 30.12 849 25.07 5.9 42.7 53 -3 26.5
23:20 1020 30.12 849 25.07 6 42.9 53 -2.8 26.9
23:25 1020 30.12 849 25.07 5.9 42.5 54 -2.8 27
23:30 1020 30.12 849 25.07 5.7 42.2 54 -2.9 26.7
23:35 1020 30.12 849 25.07 5.8 42.5 53 -3 26.6
23:40 1020 30.12 849 25.07 5.9 42.7 53 -3 26.5
23:45 1020 30.12 849 25.07 6 42.9 52 -3 26.7
23:50 1020 30.12 849 25.07 5.8 42.5 54 -2.9 26.8
23:55 1020 30.12 849 25.07 5.5 41.9 55 -2.9 26.7
24:00 1020 30.12 849 25.07 5.4 41.8 54 -3.1 26.4